Weather observations for the past three days for
Rolla / Vichy, Rolla National Airport
Metric (Imperial)
Date Time (cdt) Wind (kph) Vis. (km) Weather Sky Cond. Temperature (ºC) Relative Humidity Wind Chill (°C) Heat Index (°C) Pressure Precipitation (cm)
Air Dwpt 6 hour altimeter (cm) sea level (mb) 1 hr 3 hr 6 hr
Max. Min.
31 17:53 SE 11 16.09 Fair CLR 33.9 20.6 46% 37 76.17 1014.2
31 16:53 SE 13 16.09 A Few Clouds FEW085 35.6 18.9 37% 38 76.2 1014.2
31 15:53 S 17 16.09 Fair CLR 36.1 18.3 35% 38 76.23 1014.5
31 14:53 SE 11 16.09 A Few Clouds FEW075 35.6 18.3 36% 37 76.25 1015.1
31 13:53 Calm 16.09 Fair CLR 35 18.9 39% 37 76.3 1015.7
31 12:53 SW 15 16.09 Fair CLR 33.9 19.4 33.9 22.8 42% 36 76.35 1016.4
31 11:53 SW 11 16.09 Fair CLR 32.8 20 47% 35 76.4 1017.2
31 10:53 SW 17 16.09 Fair CLR 30.6 19.4 51% 32 76.4 1017.3
31 09:53 SW 20 16.09 Fair CLR 27.8 18.9 58% 29 76.4 1017.1
31 08:53 S 19 16.09 Fair CLR 26.1 17.2 58% 27 76.38 1017.1
31 07:53 SW 17 16.09 Fair CLR 24.4 16.7 62% 25 76.38 1016.8
31 06:53 S 17 16.09 Fair CLR 22.8 15.6 25.6 22.8 64% 76.3 1016.1
31 05:53 S 19 16.09 Fair CLR 23.9 15 58% 25 76.3 1015.7
31 04:53 S 19 16.09 Fair CLR 23.9 14.4 55% 25 76.28 1015.4
31 03:53 S 20 16.09 Fair CLR 23.9 14.4 55% 25 76.28 1015.3
31 02:53 S 17 16.09 Fair CLR 23.3 14.4 57% 76.25 1014.9
31 01:53 S 17 16.09 Fair CLR 24.4 14.4 54% 26 76.28 1015.3
31 00:53 S 19 16.09 Fair CLR 25.6 15 29.4 25.6 52% 26 76.28 1015.5
30 23:53 S 17 16.09 Fair CLR 25.6 15 52% 26 76.25 1015.1
30 22:53 SE 19 16.09 Fair CLR 26.1 15.6 52% 27 76.23 1014.9
30 21:53 SE 19 16.09 Fair CLR 26.1 17.8 60% 27 76.2 1014.7
30 20:53 SE 17 16.09 Fair CLR 26.7 19.4 64% 28 76.17 1014.2
30 19:53 SE 15 16.09 Fair CLR 27.2 20.6 67% 29 76.12 1013.8
30 18:53 SE 15 16.09 Fair CLR 29.4 20 35 29.4 57% 31 76.15 1013.9
30 17:53 SE 15 16.09 Fair CLR 32.2 20 48% 34 76.15 1013.8
30 16:53 SE 11 16.09 Fair CLR 34.4 18.3 38% 36 76.15 1013.7
30 15:53 S 15 16.09 Fair CLR 34.4 17.2 36% 35 76.17 1014.1
30 14:53 S 13 16.09 Fair CLR 34.4 16.7 35% 35 76.23 1014.7
30 13:53 S 11 16.09 Fair CLR 34.4 17.8 37% 35 76.28 1015.3
30 12:53 S 17 16.09 Fair CLR 32.2 17.8 32.2 20.6 42% 33 76.3 1015.7
30 11:53 S 17 16.09 Fair CLR 31.1 17.2 43% 32 76.35 1016.5
30 10:53 S 22 16.09 Fair CLR 28.9 16.7 48% 29 76.35 1016.6
30 09:53 S 24 16.09 Fair CLR 27.2 16.1 51% 28 76.33 1016.4
30 08:53 S 22 16.09 Fair CLR 25 15.6 56% 26 76.33 1016.4
30 07:53 S 22 16.09 Fair CLR 22.2 14.4 61% 76.35 1016.8
30 06:53 S 19 16.09 Fair CLR 20.6 13.9 23.3 20.6 66% 76.35 1016.8
30 05:53 S 22 16.09 Fair CLR 21.7 13.9 61% 76.3 1016.2
30 04:53 S 19 16.09 Fair CLR 21.7 13.9 61% 76.33 1016.3
30 03:53 S 20 16.09 Fair CLR 22.8 13.9 57% 76.33 1016.2
30 02:53 S 22 16.09 Fair CLR 22.8 13.3 55% 76.3 1016.0
30 01:53 S 20 16.09 Fair CLR 22.8 15 62% 76.3 1016.1
30 00:53 S 19 16.09 Fair CLR 22.8 15.6 26.7 22.2 64% 76.33 1016.4
29 23:53 S 17 16.09 Fair CLR 23.3 15.6 62% 76.33 1016.4
29 22:53 S 17 16.09 Fair CLR 22.8 16.7 69% 76.35 1016.5
29 21:53 SE 17 16.09 Fair CLR 23.3 17.8 71% 76.33 1016.5
29 20:53 SE 17 16.09 Fair CLR 23.9 17.8 69% 25 76.3 1016.0
29 19:53 SE 15 16.09 Fair CLR 24.4 17.8 67% 25 76.28 1015.8
29 18:53 SE 17 G 33 16.09 Fair CLR 27.2 17.8 30.6 27.2 57% 28 76.28 1016.0
29 17:53 E 15 16.09 Fair CLR 27.8 17.8 55% 29 76.3 1016.1
29 16:53 SE 15 16.09 Fair CLR 29.4 18.3 51% 30 76.3 1016.3
29 15:53 SE 15 16.09 Fair CLR 30 18.3 49% 31 76.35 1016.8
29 14:53 SE 15 16.09 Fair CLR 30 17.2 46% 30 76.43 1017.6
29 13:53 S 13 16.09 Fair CLR 30 17.2 46% 30 76.48 1018.2
29 12:53 SE 15 16.09 Fair CLR 29.4 18.3 29.4 17.8 51% 30 76.5 1018.8
29 11:53 S 13 16.09 Fair CLR 28.3 18.9 57% 30 76.58 1019.7
29 10:53 S 13 16.09 Fair CLR 26.7 17.2 56% 27 76.58 1019.8
29 09:53 S 17 16.09 Fair CLR 25 17.8 64% 26 76.61 1020.3
29 08:53 S 15 16.09 Fair CLR 23.3 17.2 69% 76.61 1020.3
29 07:53 S 9 16.09 Fair CLR 20.6 16.1 76% 76.61 1020.3
29 06:53 S 13 16.09 Fair CLR 17.8 15 18.9 15 84% 76.58 1020.1
29 04:53 S 9 16.09 Fair CLR 16.7 14.4 86% 76.56 1019.6
29 03:53 SE 13 16.09 Fair CLR 18.3 15 81% 76.53 1019.3
29 02:53 SE 15 16.09 Fair CLR 18.3 15 81% 76.56 1019.4
29 01:53 SE 13 16.09 Fair CLR 18.3 15 81% 76.56 1019.7
29 00:53 SE 11 16.09 Fair CLR 18.9 13.9 26.1 17.8 73% 76.56 1019.5
28 23:53 E 13 16.09 Fair CLR 19.4 15 76% 76.56 1019.4
28 22:53 E 9 16.09 Fair CLR 20 15 73% 76.56 1019.7
28 21:53 E 7 16.09 Fair CLR 18.3 15 81% 76.56 1019.8
28 20:53 E 6 16.09 Fair CLR 19.4 15.6 79% 76.53 1019.5
28 19:53 E 6 16.09 Fair CLR 21.7 16.7 73% 76.53 1019.4
28 18:53 E 6 16.09 Fair CLR 26.1 16.1 28.9 26.1 54% 27 76.5 1019.2
Date Time (cdt) Wind (kph) Vis. (km) Weather Sky Cond. Air Dwpt Max. Min. Relative Humidity Wind Chill (°C) Heat Index (°C) altimeter (cm) sea level (mb) 1 hr 3 hr 6 hr
6 hour
Temperature (ºC) Pressure Precipitation (cm)